Time;durP1;ratioP1;P1;durP2;ratioP2;P2;SDS_P1;SDS_P2;PMS_P1;PMS_P2;Temp;Humidity;BMP_temperature;BMP_pressure;BME280_temperature;BME280_humidity;BME280_pressure;Samples;Min_cycle;Max_cycle;Signal;HPM_P1;HPM_P2
2021/06/22 00:01:41;;;;;;;19.40;17.17;;;;;;;21.80;72.78;99392.03;1983390;88;28644;-65
2021/06/22 00:04:43;;;;;;;20.52;16.40;;;;;;;21.78;72.71;99396.80;1983050;89;31099;-69
2021/06/22 00:07:50;;;;;;;21.48;17.45;;;;;;;21.75;72.73;99395.77;2007344;87;33191;-67
2021/06/22 00:10:52;;;;;;;20.25;16.32;;;;;;;21.72;72.79;99395.61;2027250;87;29334;-67
2021/06/22 00:13:54;;;;;;;24.72;17.82;;;;;;;21.69;72.88;99388.61;2027009;87;27581;-69
2021/06/22 00:16:56;;;;;;;19.92;17.32;;;;;;;21.67;72.95;99392.54;2016489;87;28743;-68
2021/06/22 00:19:57;;;;;;;24.05;16.70;;;;;;;21.62;73.01;99386.24;2032604;87;31179;-68
2021/06/22 00:22:59;;;;;;;16.95;15.20;;;;;;;21.61;73.08;99390.48;2038247;87;33809;-67
2021/06/22 00:26:01;;;;;;;20.95;15.98;;;;;;;21.59;73.12;99383.82;2038248;87;30334;-65
2021/06/22 00:29:03;;;;;;;22.32;17.42;;;;;;;21.59;73.16;99382.45;2001643;87;27497;-64
2021/06/22 00:32:06;;;;;;;22.60;18.35;;;;;;;21.58;73.28;99384.84;1999811;89;28910;-62
2021/06/22 00:35:09;;;;;;;24.85;17.55;;;;;;;21.60;73.32;99390.11;1999678;89;31110;-63
2021/06/22 00:38:11;;;;;;;22.70;19.05;;;;;;;21.59;73.42;99393.89;2024270;87;33024;-64
2021/06/22 00:41:13;;;;;;;23.10;20.00;;;;;;;21.57;73.38;99392.67;2013886;87;29432;-63
2021/06/22 00:44:14;;;;;;;23.83;19.05;;;;;;;21.51;73.48;99390.13;1999866;89;27554;-62
2021/06/22 00:47:17;;;;;;;22.50;17.95;;;;;;;21.47;73.50;99396.92;2012593;87;28891;-62
2021/06/22 00:50:18;;;;;;;23.62;19.32;;;;;;;21.45;73.62;99400.33;2012311;87;31097;-62
2021/06/22 00:53:20;;;;;;;24.25;19.32;;;;;;;21.45;73.72;99393.52;2026948;87;33085;-62
2021/06/22 00:56:23;;;;;;;20.95;18.67;;;;;;;21.47;73.78;99396.09;2026951;87;29564;-63
2021/06/22 00:59:25;;;;;;;23.65;19.95;;;;;;;21.46;73.75;99402.03;2026166;87;27504;-62
2021/06/22 01:02:27;;;;;;;22.00;18.30;;;;;;;21.45;73.72;99403.58;1988945;87;28735;-63
2021/06/22 01:05:28;;;;;;;19.02;16.45;;;;;;;21.41;73.67;99408.52;1999762;89;31266;-66
2021/06/22 01:08:30;;;;;;;19.23;16.52;;;;;;;21.38;73.66;99406.97;2026533;87;32954;-63
2021/06/22 01:11:32;;;;;;;23.60;18.98;;;;;;;21.37;73.59;99405.78;2008490;87;29305;-63
2021/06/22 01:14:36;;;;;;;20.35;18.35;;;;;;;21.36;73.69;99399.99;2032807;87;27531;-63
2021/06/22 01:17:38;;;;;;;26.33;18.75;;;;;;;21.35;73.79;99407.83;1995935;89;29513;-62
2021/06/22 01:20:40;;;;;;;20.88;18.55;;;;;;;21.32;73.74;99414.97;1994628;89;31151;-64
2021/06/22 01:23:42;;;;;;;21.25;17.45;;;;;;;21.30;73.71;99421.09;1994594;89;33127;-64
2021/06/22 01:26:49;;;;;;;18.70;16.75;;;;;;;21.24;73.70;99413.95;1997654;87;29432;-64
2021/06/22 01:29:52;;;;;;;21.40;16.60;;;;;;;21.21;73.74;99412.91;2036079;87;27602;-64
2021/06/22 01:32:56;;;;;;;22.87;18.98;;;;;;;21.20;73.80;99419.88;2036221;87;28788;-60
2021/06/22 01:35:57;;;;;;;14.80;12.47;;;;;;;21.17;73.93;99417.52;2036839;87;31262;-63
2021/06/22 01:39:00;;;;;;;19.75;16.60;;;;;;;21.16;73.95;99426.17;2002233;87;33019;-62
2021/06/22 01:42:02;;;;;;;25.17;19.48;;;;;;;21.13;73.96;99432.47;1994702;88;30099;-62
2021/06/22 01:45:06;;;;;;;24.10;17.07;;;;;;;21.10;74.04;99435.00;1994771;89;27633;-63
2021/06/22 01:48:08;;;;;;;21.48;17.30;;;;;;;21.08;74.06;99440.62;2016288;87;28636;-63
2021/06/22 01:51:09;;;;;;;23.92;18.50;;;;;;;21.03;74.17;99437.53;2036586;87;31020;-63
2021/06/22 01:54:11;;;;;;;22.30;19.15;;;;;;;21.04;74.22;99431.59;2036465;87;33115;-62
2021/06/22 01:57:13;;;;;;;25.55;18.60;;;;;;;21.03;74.25;99429.37;2028301;87;29590;-63
2021/06/22 02:00:16;;;;;;;26.25;19.73;;;;;;;21.03;74.24;99431.25;2017859;87;27577;-64
2021/06/22 02:03:21;;;;;;;25.37;18.48;;;;;;;21.00;74.25;99435.17;2036481;87;29449;-63
2021/06/22 02:06:23;;;;;;;25.48;18.05;;;;;;;20.99;74.26;99451.66;2034201;87;31136;-64
2021/06/22 02:09:25;;;;;;;20.60;16.15;;;;;;;20.96;74.25;99456.93;2036443;87;33198;-62
2021/06/22 02:12:26;;;;;;;21.90;16.07;;;;;;;20.95;74.28;99464.75;2036474;87;29310;-62
2021/06/22 02:15:29;;;;;;;24.67;16.27;;;;;;;20.93;74.25;99464.90;2028514;87;27560;-62
2021/06/22 02:18:31;;;;;;;21.10;16.10;;;;;;;20.92;74.26;99459.63;1994050;87;29586;-64
2021/06/22 02:21:33;;;;;;;23.80;16.90;;;;;;;20.90;74.28;99463.02;1999604;89;31092;-62
2021/06/22 02:24:34;;;;;;;22.90;16.57;;;;;;;20.87;74.35;99466.94;1988701;89;33059;-63
2021/06/22 02:27:37;;;;;;;22.93;16.35;;;;;;;20.86;74.32;99460.27;2009677;87;29388;-63
2021/06/22 02:30:40;;;;;;;21.23;14.10;;;;;;;20.84;74.42;99466.42;2026663;87;27639;-64
2021/06/22 02:33:42;;;;;;;20.68;14.10;;;;;;;20.82;74.29;99471.17;2008428;87;28623;-63
2021/06/22 02:36:45;;;;;;;25.57;14.85;;;;;;;20.79;74.33;99474.56;2017819;87;31016;-63
2021/06/22 02:39:48;;;;;;;19.87;13.48;;;;;;;20.80;74.33;99478.13;1988754;89;33747;-63
2021/06/22 02:42:50;;;;;;;18.00;13.05;;;;;;;20.81;74.33;99481.72;1988821;89;29268;-62
2021/06/22 02:45:55;;;;;;;25.23;13.98;;;;;;;20.79;74.31;99482.73;1989027;89;27521;-63
2021/06/22 02:48:57;;;;;;;18.55;12.98;;;;;;;20.78;74.30;99491.04;2025558;87;28669;-62
2021/06/22 02:51:59;;;;;;;19.85;12.15;;;;;;;20.76;74.32;99499.91;2026581;87;31158;-63
2021/06/22 02:55:01;;;;;;;24.75;12.40;;;;;;;20.76;74.30;99508.91;2026822;87;32862;-63
2021/06/22 02:58:03;;;;;;;19.00;11.38;;;;;;;20.76;74.39;99495.82;2002357;87;29372;-63
2021/06/22 03:01:05;;;;;;;23.25;11.22;;;;;;;20.78;74.38;99496.48;1988786;89;27544;-63
2021/06/22 03:04:07;;;;;;;21.02;11.63;;;;;;;20.77;74.27;99486.12;1988712;89;28644;-62
2021/06/22 03:07:09;;;;;;;24.30;12.58;;;;;;;20.79;74.26;99483.22;2001305;87;31111;-65
2021/06/22 03:10:14;;;;;;;20.45;11.53;;;;;;;20.82;74.21;99484.78;2000291;87;32404;-62
2021/06/22 03:13:16;;;;;;;22.60;11.00;;;;;;;20.83;74.22;99484.61;1988806;88;30131;-62
2021/06/22 03:16:18;;;;;;;21.45;11.43;;;;;;;20.87;74.17;99475.11;1986701;87;27532;-63
2021/06/22 03:19:20;;;;;;;16.70;10.58;;;;;;;20.93;74.18;99466.78;2026623;87;28760;-63
2021/06/22 03:22:22;;;;;;;21.80;11.38;;;;;;;21.01;74.16;99472.77;2026643;87;31132;-63
2021/06/22 03:25:24;;;;;;;20.72;11.00;;;;;;;21.08;74.02;99464.30;2026598;87;32378;-63
2021/06/22 03:28:26;;;;;;;17.87;11.53;;;;;;;21.15;73.89;99461.77;2024004;87;30027;-65
2021/06/22 03:31:32;;;;;;;21.15;11.88;;;;;;;21.22;73.82;99458.20;2026653;87;27587;-65
2021/06/22 03:34:36;;;;;;;20.90;11.15;;;;;;;21.34;73.75;99470.14;2026574;87;28693;-66
2021/06/22 03:37:38;;;;;;;;;;;;;;;21.45;73.71;99477.16;2009898;87;31089;-65
2021/06/22 03:40:40;;;;;;;16.80;10.80;;;;;;;21.58;73.75;99481.59;1985306;89;32419;-66
2021/06/22 03:43:42;;;;;;;18.65;11.35;;;;;;;21.73;73.63;99484.56;1994773;87;29309;-67
2021/06/22 03:46:43;;;;;;;17.05;11.30;;;;;;;21.89;73.35;99478.77;1987684;87;27587;-67
2021/06/22 03:49:45;;;;;;;23.92;11.25;;;;;;;22.05;73.08;99481.50;1985085;89;28818;-67
2021/06/22 03:52:47;;;;;;;16.50;10.98;;;;;;;22.19;72.73;99487.28;1985653;87;31133;-67
2021/06/22 03:55:49;;;;;;;26.48;11.08;;;;;;;22.32;72.60;99487.59;2026295;87;32955;-66
2021/06/22 03:58:52;;;;;;;23.70;12.03;;;;;;;22.46;72.09;99480.63;2026247;87;29535;-66
2021/06/22 04:01:54;;;;;;;20.88;11.88;;;;;;;22.58;71.89;99477.02;2026769;87;27517;-65
2021/06/22 04:04:56;;;;;;;26.30;11.95;;;;;;;22.72;71.67;99477.65;1998271;87;28762;-67
2021/06/22 04:08:00;;;;;;;20.65;11.08;;;;;;;22.86;71.58;99486.97;1985348;89;31056;-67
2021/06/22 04:11:06;;;;;;;16.32;10.93;;;;;;;23.03;71.37;99494.59;2010656;87;32963;-67
2021/06/22 04:14:08;;;;;;;23.30;10.32;;;;;;;23.20;70.74;99494.52;2026491;87;29365;-66
2021/06/22 04:17:11;;;;;;;19.60;10.15;;;;;;;23.34;70.28;99491.55;2026922;87;27575;-67
2021/06/22 04:20:14;;;;;;;24.15;10.75;;;;;;;23.43;70.24;99497.83;1999505;87;28687;-67
2021/06/22 04:23:16;;;;;;;20.17;10.53;;;;;;;23.54;70.00;99503.41;1988755;89;31106;-65
2021/06/22 04:26:19;;;;;;;25.68;10.70;;;;;;;23.64;69.74;99502.14;2003885;87;33173;-67
2021/06/22 04:29:21;;;;;;;22.75;11.28;;;;;;;23.74;69.35;99496.97;2026689;87;29405;-68
2021/06/22 04:32:23;;;;;;;20.32;10.90;;;;;;;23.80;69.04;99503.92;2026989;87;27631;-66
2021/06/22 04:35:28;;;;;;;24.27;11.90;;;;;;;23.79;68.69;99506.33;2021877;87;28622;-65
2021/06/22 04:38:31;;;;;;;27.85;11.22;;;;;;;23.77;68.52;99498.81;1988741;89;31095;-68
2021/06/22 04:41:33;;;;;;;32.15;10.40;;;;;;;23.77;68.22;99493.34;1988886;89;33013;-66
2021/06/22 04:44:35;;;;;;;29.67;12.28;;;;;;;23.80;68.37;99498.95;1988814;89;29315;-65
2021/06/22 04:47:38;;;;;;;27.37;11.78;;;;;;;23.84;68.04;99504.41;2021390;87;27591;-66
2021/06/22 04:50:40;;;;;;;22.82;10.38;;;;;;;24.16;68.44;99503.00;2027069;87;29621;-68
2021/06/22 04:53:43;;;;;;;26.85;11.97;;;;;;;24.84;68.31;99501.62;2027071;87;31082;-71
2021/06/22 04:56:48;;;;;;;26.82;12.18;;;;;;;25.44;67.05;99505.70;2005933;87;32961;-71
2021/06/22 04:59:50;;;;;;;21.00;11.45;;;;;;;25.56;66.03;99497.29;1988618;89;29513;-71
2021/06/22 05:02:52;;;;;;;29.07;11.73;;;;;;;25.67;65.59;99497.30;1988873;89;27627;-68
2021/06/22 05:05:55;;;;;;;27.02;11.90;;;;;;;25.76;65.13;99501.61;1998343;87;28618;-69
2021/06/22 05:08:56;;;;;;;20.37;10.70;;;;;;;26.03;64.94;99503.76;2026929;87;31957;-70
2021/06/22 05:12:12;;;;;;;22.40;11.08;;;;;;;26.38;64.54;99507.48;2024765;87;32938;-71
2021/06/22 05:15:16;;;;;;;27.52;11.53;;;;;;;26.75;64.06;99512.80;2017336;87;33844;-71
2021/06/22 05:18:18;;;;;;;32.48;11.75;;;;;;;27.31;63.98;99513.73;1956577;91;27489;-72
2021/06/22 05:21:20;;;;;;;28.07;11.90;;;;;;;28.07;63.33;99524.77;1956663;91;29878;-68
2021/06/22 05:24:22;;;;;;;26.45;11.48;;;;;;;28.84;62.68;99513.33;2022410;87;31008;-73
2021/06/22 05:27:24;;;;;;;23.62;11.28;;;;;;;29.30;60.92;99516.97;2012163;87;33006;-72
2021/06/22 05:30:26;;;;;;;27.75;12.07;;;;;;;29.80;60.67;99513.57;2027743;87;30309;-69
2021/06/22 05:33:28;;;;;;;26.42;12.80;;;;;;;30.41;59.36;99513.45;1994787;89;27570;-72
2021/06/22 05:36:30;;;;;;;22.90;12.98;;;;;;;30.94;58.07;99515.41;1994705;89;28692;-72
2021/06/22 05:39:32;;;;;;;21.93;13.32;;;;;;;31.51;57.15;99521.22;1994381;89;31796;-71
2021/06/22 05:42:35;;;;;;;23.60;13.90;;;;;;;32.01;56.12;99522.89;1996957;87;33106;-72
2021/06/22 05:45:37;;;;;;;29.63;15.08;;;;;;;32.52;53.96;99525.25;1994709;89;30221;-72
2021/06/22 05:48:38;;;;;;;23.38;14.23;;;;;;;32.71;53.58;99521.28;2024329;87;27755;-71
2021/06/22 05:51:41;;;;;;;29.32;15.38;;;;;;;32.98;53.23;99519.44;2036624;87;28588;-66
2021/06/22 05:54:43;;;;;;;26.37;14.73;;;;;;;33.29;51.80;99522.00;2036471;87;31011;-67
2021/06/22 05:57:52;;;;;;;28.77;14.78;;;;;;;33.61;51.42;99520.16;2020949;87;33032;-72
2021/06/22 06:00:53;;;;;;;28.38;15.72;;;;;;;33.95;50.43;99527.22;1994705;89;29987;-66
2021/06/22 06:03:56;;;;;;;21.30;14.47;;;;;;;34.39;49.81;99527.44;1994677;88;27529;-65
2021/06/22 06:06:58;;;;;;;26.65;15.60;;;;;;;34.81;49.15;99524.76;1973272;87;28806;-72
2021/06/22 06:10:04;;;;;;;24.12;16.57;;;;;;;35.22;48.50;99526.42;2036443;87;31827;-70
2021/06/22 06:13:08;;;;;;;23.38;16.65;;;;;;;35.22;47.40;99527.81;2011809;87;30506;-71
2021/06/22 06:16:10;;;;;;;22.70;15.58;;;;;;;34.97;46.99;99527.78;2030785;87;30421;-69
2021/06/22 06:19:12;;;;;;;27.32;16.10;;;;;;;34.80;46.56;99525.86;1995870;87;27588;-70
2021/06/22 06:22:14;;;;;;;26.70;16.32;;;;;;;34.48;46.29;99520.07;1999808;87;28635;-70
2021/06/22 06:25:16;;;;;;;27.22;18.20;;;;;;;34.34;45.96;99521.78;2001900;87;31144;-66
2021/06/22 06:28:22;;;;;;;28.73;17.13;;;;;;;33.97;45.91;99527.81;2010669;87;32434;-67
2021/06/22 06:31:25;;;;;;;;;;;;;;;33.51;45.93;99537.47;2029238;87;29618;-63
2021/06/22 06:34:29;;;;;;;;;;;;;;;33.07;46.42;99530.14;2029568;87;27573;-63
2021/06/22 06:37:34;;;;;;;23.67;16.80;;;;;;;32.70;46.72;99534.84;2024717;87;28810;-64
2021/06/22 06:40:36;;;;;;;27.90;18.50;;;;;;;32.38;47.07;99535.75;2026841;87;31090;-69
2021/06/22 06:43:40;;;;;;;26.30;16.90;;;;;;;32.19;47.42;99541.34;2026850;87;32954;-67
2021/06/22 06:46:42;;;;;;;24.05;17.50;;;;;;;32.35;47.80;99537.61;2014129;87;29436;-67
2021/06/22 06:49:44;;;;;;;26.52;16.97;;;;;;;32.42;47.37;99537.80;2027047;87;27569;-68
2021/06/22 06:52:49;;;;;;;29.45;17.90;;;;;;;32.30;47.54;99523.09;2021907;87;28694;-69
2021/06/22 06:55:51;;;;;;;25.50;16.87;;;;;;;32.41;47.76;99531.13;2006661;87;31698;-70
2021/06/22 06:58:53;;;;;;;20.25;16.70;;;;;;;32.58;47.75;99525.69;1999632;89;32955;-68
2021/06/22 07:01:55;;;;;;;25.02;18.07;;;;;;;32.65;47.53;99520.02;2003089;87;30035;-67
2021/06/22 07:05:07;;;;;;;28.12;17.52;;;;;;;32.60;47.40;99519.92;2037546;87;27537;-67
2021/06/22 07:08:10;;;;;;;25.12;17.40;;;;;;;32.40;47.40;99506.69;2033466;87;27560;-65
2021/06/22 07:11:12;;;;;;;28.02;19.42;;;;;;;32.35;47.67;99505.17;2005646;87;31008;-65
2021/06/22 07:14:14;;;;;;;26.12;18.50;;;;;;;32.73;47.75;99509.95;1988666;89;33670;-69
2021/06/22 07:17:17;;;;;;;22.13;17.85;;;;;;;33.22;47.48;99523.52;1974725;89;27815;-68
2021/06/22 07:20:22;;;;;;;29.20;19.05;;;;;;;33.84;47.46;99533.09;1980430;89;27803;-67
2021/06/22 07:23:27;;;;;;;23.75;18.15;;;;;;;34.43;46.61;99533.36;1970597;89;29597;-71
2021/06/22 07:26:29;;;;;;;27.00;17.67;;;;;;;34.93;46.00;99534.92;1949638;90;32060;-66
2021/06/22 07:29:32;;;;;;;28.15;18.73;;;;;;;35.37;45.15;99536.92;1971456;89;33009;-66
2021/06/22 07:32:35;;;;;;;25.72;18.75;;;;;;;35.63;44.90;99545.60;1970427;89;29337;-69
2021/06/22 07:35:37;;;;;;;30.75;21.42;;;;;;;35.75;44.25;99561.61;1970436;90;27530;-65
2021/06/22 07:38:44;;;;;;;26.07;19.53;;;;;;;35.51;43.47;99566.09;1971810;89;28839;-66
2021/06/22 07:41:48;;;;;;;29.65;19.25;;;;;;;35.11;43.80;99568.59;1987771;89;31031;-68
2021/06/22 07:44:52;;;;;;;25.35;19.90;;;;;;;34.78;43.97;99586.48;1998645;89;33914;-67
2021/06/22 07:47:55;;;;;;;21.40;19.07;;;;;;;34.52;44.26;99593.58;1986578;88;29488;-66
2021/06/22 07:50:57;;;;;;;22.07;19.27;;;;;;;34.36;44.39;99597.45;2025094;87;27508;-67
2021/06/22 07:54:02;;;;;;;21.27;18.90;;;;;;;34.14;44.53;99600.66;2024462;87;28696;-71
2021/06/22 07:57:04;;;;;;;23.25;20.40;;;;;;;33.89;44.57;99597.14;1944943;90;30856;-69
2021/06/22 08:00:17;;;;;;;27.30;20.17;;;;;;;33.60;44.46;99594.33;2028227;87;33949;-64
2021/06/22 08:03:17;;;;;;;20.72;18.50;;;;;;;33.65;44.68;99589.41;1996983;89;30160;-65
2021/06/22 08:06:19;;;;;;;19.45;17.42;;;;;;;33.75;44.68;99579.05;1970449;90;27560;-68
2021/06/22 08:09:22;;;;;;;22.55;19.50;;;;;;;33.90;44.77;99570.22;1946294;88;28113;-67
2021/06/22 08:12:24;;;;;;;25.40;18.70;;;;;;;34.12;44.47;99570.87;1951545;90;30519;-64
2021/06/22 08:15:33;;;;;;;21.60;19.25;;;;;;;34.47;44.76;99586.52;1966381;89;32967;-65
2021/06/22 08:18:34;;;;;;;22.62;19.25;;;;;;;34.86;43.87;99606.08;2024583;87;29374;-66
2021/06/22 08:21:37;;;;;;;19.40;17.40;;;;;;;34.97;43.33;99615.47;2009999;87;27734;-65
2021/06/22 08:24:39;;;;;;;22.77;17.27;;;;;;;35.02;43.91;99618.87;2003624;87;28568;-63
2021/06/22 08:27:41;;;;;;;22.05;16.15;;;;;;;35.27;43.65;99612.83;1994097;89;31183;-67
2021/06/22 08:30:43;;;;;;;24.15;17.45;;;;;;;35.55;43.30;99606.27;1961796;90;33042;-67
2021/06/22 08:33:45;;;;;;;19.12;17.15;;;;;;;35.85;42.83;99610.52;1994071;89;29466;-66
2021/06/22 08:36:47;;;;;;;19.02;17.07;;;;;;;35.95;42.43;99611.76;1994395;89;27518;-66
2021/06/22 08:39:51;;;;;;;22.20;15.85;;;;;;;35.75;42.11;99615.95;2016983;87;28742;-67
2021/06/22 08:42:55;;;;;;;16.10;12.80;;;;;;;35.60;42.11;99613.84;2032431;87;31782;-66
2021/06/22 08:45:59;;;;;;;19.20;12.80;;;;;;;35.72;42.28;99618.72;2014307;87;33140;-65
2021/06/22 08:49:03;;;;;;;18.82;12.95;;;;;;;35.68;41.62;99614.77;2016611;87;29412;-67
2021/06/22 08:52:08;;;;;;;19.35;13.03;;;;;;;35.40;41.41;99615.80;2007039;87;27592;-69
2021/06/22 08:55:25;;;;;;;16.67;11.50;;;;;;;35.03;41.39;99616.38;1985283;87;29643;-67
2021/06/22 08:58:27;;;;;;;15.08;10.65;;;;;;;34.67;41.67;99620.25;2036039;87;31158;-67
2021/06/22 09:01:31;;;;;;;14.80;10.93;;;;;;;34.17;41.62;99620.45;2035870;87;32940;-63
2021/06/22 09:04:34;;;;;;;16.42;9.78;;;;;;;33.73;41.99;99627.07;2035378;87;30183;-63
2021/06/22 09:07:47;;;;;;;9.33;8.00;;;;;;;33.34;42.28;99627.62;2014898;87;27578;-63
2021/06/22 09:10:52;;;;;;;11.25;7.92;;;;;;;33.00;42.67;99627.40;1994429;88;28645;-66
2021/06/22 09:14:00;;;;;;;10.25;6.95;;;;;;;32.67;42.78;99631.04;2020190;88;30989;-64
2021/06/22 09:17:04;;;;;;;14.87;7.03;;;;;;;32.47;43.01;99631.34;1986114;88;32921;-64
2021/06/22 09:20:08;;;;;;;7.28;6.53;;;;;;;32.26;43.29;99630.83;1942916;91;29385;-64
2021/06/22 09:23:26;;;;;;;11.55;6.60;;;;;;;32.11;43.43;99634.52;1951601;91;27514;-62
2021/06/22 09:26:32;;;;;;;11.20;7.37;;;;;;;31.94;43.63;99642.64;1945986;91;28743;-62
2021/06/22 09:29:39;;;;;;;10.65;5.87;;;;;;;31.70;43.92;99641.13;1980485;89;31813;-66
2021/06/22 09:32:43;;;;;;;8.93;6.17;;;;;;;31.49;44.03;99646.05;1979310;89;32839;-65
2021/06/22 09:35:50;;;;;;;13.05;5.90;;;;;;;31.19;44.33;99642.63;1980103;89;33546;-66
2021/06/22 09:38:56;;;;;;;9.58;6.20;;;;;;;30.85;44.40;99641.23;1980407;89;36304;-64
2021/06/22 09:41:58;;;;;;;11.63;6.00;;;;;;;30.59;44.74;99652.28;1980421;89;29603;-66
2021/06/22 09:45:19;;;;;;;12.63;6.53;;;;;;;30.35;45.03;99650.31;1990478;88;31176;-66
2021/06/22 09:48:26;;;;;;;11.10;5.90;;;;;;;30.19;45.22;99647.02;1991124;88;33156;-65
2021/06/22 09:51:45;;;;;;;9.28;5.72;;;;;;;30.15;45.69;99646.59;2017190;88;29421;-66
2021/06/22 09:54:50;;;;;;;12.25;6.45;;;;;;;30.31;45.96;99648.51;1982440;87;27546;-64
2021/06/22 09:57:54;;;;;;;6.20;5.60;;;;;;;30.63;46.12;99642.99;1957432;89;27735;-65
2021/06/22 10:00:56;;;;;;;14.55;5.85;;;;;;;30.85;45.94;99641.23;2009452;88;31865;-67
2021/06/22 10:04:18;;;;;;;10.98;6.28;;;;;;;31.10;45.80;99643.14;1995413;87;29492;-65
2021/06/22 10:07:23;;;;;;;7.53;5.65;;;;;;;31.34;45.67;99649.18;1972797;89;29365;-67
2021/06/22 10:10:41;;;;;;;10.03;5.62;;;;;;;31.50;45.37;99642.73;1972970;90;27523;-66
2021/06/22 10:13:42;;;;;;;10.80;6.87;;;;;;;31.70;45.36;99641.64;1972798;89;29489;-68
2021/06/22 10:16:44;;;;;;;11.33;5.35;;;;;;;31.92;44.96;99648.95;2003018;88;31094;-66
2021/06/22 10:19:52;;;;;;;8.15;6.08;;;;;;;32.02;45.00;99650.62;2017181;87;34004;-66
2021/06/22 10:22:54;;;;;;;10.68;6.15;;;;;;;32.10;44.82;99648.09;2009016;88;30072;-66
2021/06/22 10:25:56;;;;;;;7.55;5.55;;;;;;;32.13;44.69;99655.39;1983590;88;27583;-66
2021/06/22 10:29:01;;;;;;;7.08;5.25;;;;;;;32.07;44.70;99659.08;1993140;88;28647;-66
2021/06/22 10:32:06;;;;;;;13.20;5.75;;;;;;;31.98;44.30;99661.89;2017393;87;31130;-63
2021/06/22 10:35:12;;;;;;;13.30;6.17;;;;;;;31.75;44.32;99665.37;2002800;88;29484;-66
2021/06/22 10:38:16;;;;;;;11.60;6.05;;;;;;;31.49;44.61;99667.34;2017413;88;30141;-64
2021/06/22 10:41:20;;;;;;;;;;;;;;;31.25;44.72;99678.77;1991361;89;27658;-67
2021/06/22 10:44:48;;;;;;;7.50;5.80;;;;;;;31.05;44.96;99670.08;1973846;89;28703;-69
2021/06/22 10:47:59;;;;;;;12.18;6.70;;;;;;;30.74;45.14;99681.00;1991520;89;30648;-67
2021/06/22 10:51:00;;;;;;;10.23;6.92;;;;;;;30.44;45.26;99682.13;2001994;89;33745;-66
2021/06/22 10:54:04;;;;;;;7.42;6.50;;;;;;;30.14;45.88;99686.88;1944630;89;27807;-66
2021/06/22 10:57:06;;;;;;;12.30;8.15;;;;;;;29.95;46.15;99690.02;1991252;89;27514;-59
2021/06/22 11:00:10;;;;;;;7.47;6.87;;;;;;;29.76;46.26;99695.41;1989527;89;28685;-59
2021/06/22 11:03:28;;;;;;;14.40;7.67;;;;;;;29.58;46.66;99701.59;1967485;89;32283;-60
2021/06/22 11:06:30;;;;;;;9.68;7.62;;;;;;;29.44;46.98;99699.94;1983516;89;33780;-59
2021/06/22 11:09:33;;;;;;;12.10;7.42;;;;;;;29.33;47.36;99700.02;1983526;89;29374;-60
2021/06/22 11:12:54;;;;;;;11.78;8.43;;;;;;;29.25;47.50;99696.44;1983654;89;27659;-60
2021/06/22 11:16:23;;;;;;;11.73;8.65;;;;;;;29.24;47.71;99687.84;1983538;89;28635;-59
2021/06/22 11:19:27;;;;;;;9.08;8.25;;;;;;;29.32;48.05;99679.02;1951328;90;31108;-59
2021/06/22 11:23:00;;;;;;;11.90;8.80;;;;;;;29.57;48.31;99677.81;1951997;89;33742;-59
2021/06/22 11:26:15;;;;;;;12.10;9.13;;;;;;;29.70;48.31;99670.87;1947684;91;30122;-59
2021/06/22 11:29:38;;;;;;;13.80;9.30;;;;;;;29.73;48.04;99671.50;1894355;93;27692;-59
2021/06/22 11:32:40;;;;;;;14.80;10.10;;;;;;;29.70;48.30;99677.77;1895348;93;28783;-59
2021/06/22 11:35:42;;;;;;;13.22;10.45;;;;;;;29.76;48.55;99676.08;1898038;93;31111;-59
2021/06/22 11:38:47;;;;;;;17.35;12.05;;;;;;;29.78;48.21;99680.85;1899594;93;33159;-59
2021/06/22 11:42:15;;;;;;;15.88;10.82;;;;;;;29.76;48.30;99689.02;1874401;93;29567;-59
2021/06/22 11:45:19;;;;;;;17.17;11.85;;;;;;;29.70;48.33;99683.84;1895600;93;27644;-59
2021/06/22 11:48:21;;;;;;;13.45;11.08;;;;;;;29.73;48.36;99691.69;1894488;93;29455;-59
2021/06/22 11:51:50;;;;;;;20.57;11.45;;;;;;;29.64;48.41;99688.84;1896900;93;31984;-59
2021/06/22 11:55:03;;;;;;;13.18;11.25;;;;;;;29.65;48.67;99692.78;1894335;93;33590;-59
2021/06/22 11:58:08;;;;;;;13.80;12.37;;;;;;;29.62;48.85;99697.34;1901968;92;29513;-59
2021/06/22 12:01:10;;;;;;;20.75;12.58;;;;;;;29.55;48.63;99702.02;1896948;93;27590;-60
2021/06/22 12:04:12;;;;;;;15.63;12.88;;;;;;;29.39;48.76;99708.86;1900027;93;28702;-59
2021/06/22 12:07:14;;;;;;;15.40;11.95;;;;;;;29.26;49.08;99714.70;1894819;93;31108;-60
2021/06/22 12:10:16;;;;;;;14.87;11.63;;;;;;;29.20;49.53;99707.81;1897530;93;33734;-58
2021/06/22 12:13:33;;;;;;;13.55;10.08;;;;;;;29.19;49.38;99712.46;1897831;93;30184;-59
2021/06/22 12:16:35;;;;;;;16.95;10.00;;;;;;;29.13;49.33;99720.20;1903068;92;27637;-59
2021/06/22 12:19:37;;;;;;;11.50;9.98;;;;;;;29.00;49.22;99730.72;1930727;92;29486;-60
2021/06/22 12:22:39;;;;;;;17.73;10.03;;;;;;;28.75;49.18;99713.95;1930692;92;31233;-59
2021/06/22 12:25:47;;;;;;;20.37;9.73;;;;;;;28.48;49.58;99721.61;1930892;92;33114;-60
2021/06/22 12:28:49;;;;;;;12.47;9.88;;;;;;;28.29;49.93;99723.27;1927984;92;29257;-59
2021/06/22 12:32:04;;;;;;;14.50;8.33;;;;;;;28.12;50.16;99723.30;1930794;92;27721;-59
2021/06/22 12:35:10;;;;;;;9.65;7.78;;;;;;;28.04;50.40;99718.25;1930722;92;29413;-59
2021/06/22 12:38:16;;;;;;;14.70;8.70;;;;;;;27.99;50.59;99720.76;1928735;92;31049;-61
2021/06/22 12:41:18;;;;;;;11.08;7.97;;;;;;;28.04;50.50;99731.19;1909863;92;32900;-60
2021/06/22 12:44:27;;;;;;;10.53;9.15;;;;;;;28.12;50.60;99735.70;1930700;92;29326;-59
2021/06/22 12:47:29;;;;;;;11.12;8.68;;;;;;;28.22;50.85;99735.28;1911239;92;27725;-59
2021/06/22 12:50:34;;;;;;;14.07;8.53;;;;;;;28.27;50.38;99745.16;1929382;92;28906;-58
2021/06/22 12:53:38;;;;;;;11.63;8.38;;;;;;;28.25;50.41;99748.64;1927526;92;31114;-58
2021/06/22 12:56:56;;;;;;;10.18;7.80;;;;;;;28.31;50.31;99754.17;1862828;95;32963;-59
2021/06/22 12:59:59;;;;;;;16.17;8.90;;;;;;;28.29;50.45;99754.07;1891115;94;29294;-58
2021/06/22 13:03:19;;;;;;;13.03;8.63;;;;;;;28.34;50.25;99756.52;1891136;94;27848;-58
2021/06/22 13:06:43;;;;;;;14.00;8.45;;;;;;;28.32;50.35;99757.25;1891141;94;28834;-58
2021/06/22 13:09:49;;;;;;;9.13;7.67;;;;;;;28.34;50.29;99769.47;1891156;94;31129;-58
2021/06/22 13:12:52;;;;;;;8.93;7.67;;;;;;;28.28;50.30;99763.39;1891169;94;33025;-58
2021/06/22 13:16:11;;;;;;;9.10;7.80;;;;;;;28.11;50.05;99760.99;1891132;94;29367;-59
2021/06/22 13:19:18;;;;;;;8.15;7.35;;;;;;;28.02;50.11;99765.79;1884614;94;27683;-59
2021/06/22 13:22:31;;;;;;;8.55;7.50;;;;;;;27.97;50.44;99754.53;1890258;93;28882;-60
2021/06/22 13:25:36;;;;;;;10.70;7.05;;;;;;;28.00;50.52;99755.50;1842682;96;31066;-58
2021/06/22 13:28:39;;;;;;;10.60;7.33;;;;;;;27.98;50.47;99769.16;1842815;96;33278;-59
2021/06/22 13:31:55;;;;;;;10.10;7.62;;;;;;;27.85;50.40;99762.53;1842639;96;29470;-58
2021/06/22 13:34:59;;;;;;;8.70;7.05;;;;;;;27.80;50.45;99776.05;1840395;96;27792;-58
2021/06/22 13:38:21;;;;;;;7.42;6.72;;;;;;;27.77;50.56;99779.74;1842767;96;29323;-59
2021/06/22 13:41:25;;;;;;;7.45;6.00;;;;;;;27.71;50.43;99787.74;1840541;96;31775;-59
2021/06/22 13:44:42;;;;;;;7.70;6.22;;;;;;;27.56;50.61;99776.83;1842570;96;33666;-58
2021/06/22 13:47:47;;;;;;;10.18;6.85;;;;;;;27.49;50.84;99770.95;1840591;96;30010;-59
2021/06/22 13:50:51;;;;;;;6.53;5.92;;;;;;;27.49;51.14;99775.09;1842830;96;27683;-59
2021/06/22 13:54:12;;;;;;;8.10;6.87;;;;;;;27.49;51.11;99776.46;1840594;96;28912;-58
2021/06/22 13:57:17;;;;;;;8.80;6.33;;;;;;;27.51;51.31;99790.88;1842639;96;31138;-58
2021/06/22 14:00:20;;;;;;;;;;;;;;;27.38;51.11;99802.61;1885322;93;33052;-58
2021/06/22 14:03:28;;;;;;;7.47;6.70;;;;;;;27.12;51.32;99805.44;1924777;92;29473;-58
2021/06/22 14:06:33;;;;;;;8.15;6.95;;;;;;;26.88;51.67;99819.92;1937273;91;27603;-58
2021/06/22 14:09:38;;;;;;;12.25;7.10;;;;;;;26.68;52.12;99821.02;1918832;91;27884;-58
2021/06/22 14:12:41;;;;;;;8.53;7.58;;;;;;;26.55;52.47;99817.62;1981892;89;30872;-58
2021/06/22 14:15:46;;;;;;;8.08;7.28;;;;;;;26.44;52.73;99811.22;2004362;87;33712;-58